sensor_id;sensor_type;location;lat;lon;timestamp;pressure;altitude;pressure_sealevel;temperature;humidity
8334;BME280;4204;43.004;23.052;2024-03-22T00:00:05;93916.31;;;2.29;66.06
8334;BME280;4204;43.004;23.052;2024-03-22T00:02:30;93905.91;;;2.22;66.98
8334;BME280;4204;43.004;23.052;2024-03-22T00:04:56;93906.16;;;2.11;66.32
8334;BME280;4204;43.004;23.052;2024-03-22T00:07:21;93914.56;;;2.04;65.49
8334;BME280;4204;43.004;23.052;2024-03-22T00:09:46;93919.78;;;2.02;66.73
8334;BME280;4204;43.004;23.052;2024-03-22T00:12:12;93917.63;;;1.89;67.20
8334;BME280;4204;43.004;23.052;2024-03-22T00:14:37;93910.94;;;1.88;66.17
8334;BME280;4204;43.004;23.052;2024-03-22T00:17:03;93908.34;;;1.80;67.67
8334;BME280;4204;43.004;23.052;2024-03-22T00:19:28;93914.59;;;1.86;66.29
8334;BME280;4204;43.004;23.052;2024-03-22T00:21:53;93909.19;;;1.63;69.04
8334;BME280;4204;43.004;23.052;2024-03-22T00:24:19;93906.13;;;1.59;68.69
8334;BME280;4204;43.004;23.052;2024-03-22T00:26:44;93906.94;;;1.60;68.28
8334;BME280;4204;43.004;23.052;2024-03-22T00:29:09;93909.75;;;1.75;67.24
8334;BME280;4204;43.004;23.052;2024-03-22T00:31:35;93911.94;;;1.52;68.79
8334;BME280;4204;43.004;23.052;2024-03-22T00:34:00;93911.31;;;1.50;66.96
8334;BME280;4204;43.004;23.052;2024-03-22T00:36:25;93908.75;;;1.50;68.81
8334;BME280;4204;43.004;23.052;2024-03-22T00:38:51;93904.34;;;1.52;67.39
8334;BME280;4204;43.004;23.052;2024-03-22T00:41:16;93911.44;;;1.31;68.51
8334;BME280;4204;43.004;23.052;2024-03-22T00:43:42;93894.16;;;1.34;67.89
8334;BME280;4204;43.004;23.052;2024-03-22T00:46:07;93911.13;;;1.34;68.81
8334;BME280;4204;43.004;23.052;2024-03-22T00:48:33;93907.72;;;1.25;67.21
8334;BME280;4204;43.004;23.052;2024-03-22T00:51:00;93901.91;;;1.15;68.19
8334;BME280;4204;43.004;23.052;2024-03-22T00:53:25;93899.88;;;1.01;69.08
8334;BME280;4204;43.004;23.052;2024-03-22T00:55:51;93910.81;;;1.01;68.39
8334;BME280;4204;43.004;23.052;2024-03-22T00:58:19;93917.41;;;0.94;70.07
8334;BME280;4204;43.004;23.052;2024-03-22T01:00:45;93907.63;;;0.99;69.38
8334;BME280;4204;43.004;23.052;2024-03-22T01:03:11;93914.59;;;0.97;69.36
8334;BME280;4204;43.004;23.052;2024-03-22T01:05:36;93915.44;;;0.88;68.55
8334;BME280;4204;43.004;23.052;2024-03-22T01:08:02;93910.16;;;0.81;69.81
8334;BME280;4204;43.004;23.052;2024-03-22T01:10:27;93909.72;;;0.58;71.08
8334;BME280;4204;43.004;23.052;2024-03-22T01:12:53;93912.84;;;0.70;70.63
8334;BME280;4204;43.004;23.052;2024-03-22T01:15:18;93917.25;;;0.78;68.55
8334;BME280;4204;43.004;23.052;2024-03-22T01:17:43;93917.53;;;0.75;70.33
8334;BME280;4204;43.004;23.052;2024-03-22T01:20:10;93917.25;;;0.68;69.31
8334;BME280;4204;43.004;23.052;2024-03-22T01:22:35;93920.47;;;0.70;68.56
8334;BME280;4204;43.004;23.052;2024-03-22T01:25:02;93914.16;;;0.74;68.44
8334;BME280;4204;43.004;23.052;2024-03-22T01:27:28;93920.41;;;0.52;70.50
8334;BME280;4204;43.004;23.052;2024-03-22T01:29:53;93918.63;;;0.62;70.09
8334;BME280;4204;43.004;23.052;2024-03-22T01:32:18;93921.22;;;0.53;69.17
8334;BME280;4204;43.004;23.052;2024-03-22T01:34:44;93919.56;;;0.61;69.18
8334;BME280;4204;43.004;23.052;2024-03-22T01:37:09;93916.75;;;0.64;70.44
8334;BME280;4204;43.004;23.052;2024-03-22T01:39:34;93914.03;;;0.48;70.56
8334;BME280;4204;43.004;23.052;2024-03-22T01:42:00;93921.72;;;0.56;70.09
8334;BME280;4204;43.004;23.052;2024-03-22T01:44:29;93920.50;;;0.60;68.74
8334;BME280;4204;43.004;23.052;2024-03-22T01:46:56;93920.38;;;0.62;70.58
8334;BME280;4204;43.004;23.052;2024-03-22T01:49:21;93916.03;;;0.45;68.87
8334;BME280;4204;43.004;23.052;2024-03-22T01:51:48;93910.84;;;0.46;71.05
8334;BME280;4204;43.004;23.052;2024-03-22T01:54:15;93908.06;;;0.40;70.41
8334;BME280;4204;43.004;23.052;2024-03-22T01:56:41;93914.16;;;0.47;69.94
8334;BME280;4204;43.004;23.052;2024-03-22T01:59:06;93914.03;;;0.48;70.66
8334;BME280;4204;43.004;23.052;2024-03-22T02:01:33;93906.69;;;0.45;70.99
8334;BME280;4204;43.004;23.052;2024-03-22T02:03:58;93906.31;;;0.40;70.98
8334;BME280;4204;43.004;23.052;2024-03-22T02:06:24;93915.97;;;0.27;71.04
8334;BME280;4204;43.004;23.052;2024-03-22T02:08:49;93903.03;;;0.30;70.43
8334;BME280;4204;43.004;23.052;2024-03-22T02:11:15;93907.13;;;0.41;70.74
8334;BME280;4204;43.004;23.052;2024-03-22T02:13:40;93899.28;;;0.34;70.55
8334;BME280;4204;43.004;23.052;2024-03-22T02:16:06;93906.94;;;0.15;71.68
8334;BME280;4204;43.004;23.052;2024-03-22T02:18:31;93915.72;;;0.20;70.91
8334;BME280;4204;43.004;23.052;2024-03-22T02:20:57;93913.97;;;0.30;71.09
8334;BME280;4204;43.004;23.052;2024-03-22T02:23:38;93912.44;;;0.10;71.52
8334;BME280;4204;43.004;23.052;2024-03-22T02:26:04;93911.75;;;0.18;71.37
8334;BME280;4204;43.004;23.052;2024-03-22T02:28:30;93912.53;;;0.18;70.91
8334;BME280;4204;43.004;23.052;2024-03-22T02:30:57;93924.84;;;-0.06;72.98
8334;BME280;4204;43.004;23.052;2024-03-22T02:33:22;93932.06;;;-0.11;73.17
8334;BME280;4204;43.004;23.052;2024-03-22T02:35:48;93934.19;;;-0.07;72.50
8334;BME280;4204;43.004;23.052;2024-03-22T02:38:14;93917.25;;;-0.16;72.07
8334;BME280;4204;43.004;23.052;2024-03-22T02:40:40;93921.81;;;0.00;72.21
8334;BME280;4204;43.004;23.052;2024-03-22T02:43:05;93922.19;;;0.05;71.76
8334;BME280;4204;43.004;23.052;2024-03-22T02:45:31;93929.47;;;0.18;71.44
8334;BME280;4204;43.004;23.052;2024-03-22T02:47:57;93926.97;;;0.08;71.59
8334;BME280;4204;43.004;23.052;2024-03-22T02:50:22;93928.16;;;0.14;71.89
8334;BME280;4204;43.004;23.052;2024-03-22T02:52:48;93931.31;;;0.25;71.00
8334;BME280;4204;43.004;23.052;2024-03-22T02:55:14;93930.00;;;0.21;70.83
8334;BME280;4204;43.004;23.052;2024-03-22T02:57:39;93936.69;;;0.13;71.65
8334;BME280;4204;43.004;23.052;2024-03-22T03:00:05;93928.72;;;0.08;71.12
8334;BME280;4204;43.004;23.052;2024-03-22T03:02:31;93941.53;;;0.06;71.17
8334;BME280;4204;43.004;23.052;2024-03-22T03:04:56;93926.97;;;0.08;70.73
8334;BME280;4204;43.004;23.052;2024-03-22T03:07:23;93938.72;;;-0.10;72.00
8334;BME280;4204;43.004;23.052;2024-03-22T03:09:49;93930.72;;;-0.15;72.43
8334;BME280;4204;43.004;23.052;2024-03-22T03:12:14;93931.03;;;-0.28;72.57
8334;BME280;4204;43.004;23.052;2024-03-22T03:14:39;93934.22;;;-0.26;72.00
8334;BME280;4204;43.004;23.052;2024-03-22T03:17:05;93930.09;;;-0.27;73.43
8334;BME280;4204;43.004;23.052;2024-03-22T03:19:30;93935.81;;;-0.25;72.44
8334;BME280;4204;43.004;23.052;2024-03-22T03:21:56;93947.28;;;-0.30;73.07
8334;BME280;4204;43.004;23.052;2024-03-22T03:24:21;93941.94;;;-0.27;72.89
8334;BME280;4204;43.004;23.052;2024-03-22T03:26:46;93950.88;;;-0.33;72.30
8334;BME280;4204;43.004;23.052;2024-03-22T03:29:12;93947.41;;;-0.32;73.01
8334;BME280;4204;43.004;23.052;2024-03-22T03:31:37;93944.34;;;-0.36;72.80
8334;BME280;4204;43.004;23.052;2024-03-22T03:34:03;93942.75;;;-0.27;72.33
8334;BME280;4204;43.004;23.052;2024-03-22T03:36:28;93936.63;;;-0.44;72.65
8334;BME280;4204;43.004;23.052;2024-03-22T03:38:53;93945.03;;;-0.53;72.86
8334;BME280;4204;43.004;23.052;2024-03-22T03:41:19;93938.78;;;-0.49;72.62
8334;BME280;4204;43.004;23.052;2024-03-22T03:43:44;93949.44;;;-0.45;72.99
8334;BME280;4204;43.004;23.052;2024-03-22T03:46:09;93949.03;;;-0.50;74.07
8334;BME280;4204;43.004;23.052;2024-03-22T03:48:35;93945.97;;;-0.44;73.91
8334;BME280;4204;43.004;23.052;2024-03-22T03:51:00;93952.22;;;-0.58;73.96
8334;BME280;4204;43.004;23.052;2024-03-22T03:53:29;93954.50;;;-0.55;74.03
8334;BME280;4204;43.004;23.052;2024-03-22T03:55:54;93944.38;;;-0.65;74.30
8334;BME280;4204;43.004;23.052;2024-03-22T03:58:20;93956.75;;;-0.52;73.75
8334;BME280;4204;43.004;23.052;2024-03-22T04:00:45;93958.22;;;-0.49;73.33
8334;BME280;4204;43.004;23.052;2024-03-22T04:03:11;93950.09;;;-0.53;74.37
8334;BME280;4204;43.004;23.052;2024-03-22T04:05:36;93961.16;;;-0.44;72.83
8334;BME280;4204;43.004;23.052;2024-03-22T04:08:02;93945.84;;;-0.52;72.99
8334;BME280;4204;43.004;23.052;2024-03-22T04:10:27;93975.28;;;-0.51;74.01
8334;BME280;4204;43.004;23.052;2024-03-22T04:12:52;93955.81;;;-0.70;73.77
8334;BME280;4204;43.004;23.052;2024-03-22T04:15:18;93979.00;;;-0.65;74.15
8334;BME280;4204;43.004;23.052;2024-03-22T04:17:43;93976.34;;;-0.73;74.44
8334;BME280;4204;43.004;23.052;2024-03-22T04:20:09;93977.25;;;-0.74;74.75
8334;BME280;4204;43.004;23.052;2024-03-22T04:22:36;93957.22;;;-0.97;74.92
8334;BME280;4204;43.004;23.052;2024-03-22T04:25:02;93971.72;;;-1.08;75.76
8334;BME280;4204;43.004;23.052;2024-03-22T04:27:27;93981.44;;;-1.04;76.33
8334;BME280;4204;43.004;23.052;2024-03-22T04:29:52;93987.81;;;-1.09;76.09
8334;BME280;4204;43.004;23.052;2024-03-22T04:32:18;93981.97;;;-1.10;76.80
8334;BME280;4204;43.004;23.052;2024-03-22T04:34:44;93988.75;;;-1.10;76.60
8334;BME280;4204;43.004;23.052;2024-03-22T04:37:10;93992.75;;;-1.08;76.74
8334;BME280;4204;43.004;23.052;2024-03-22T04:39:40;93998.47;;;-1.06;76.88
8334;BME280;4204;43.004;23.052;2024-03-22T04:42:05;93992.22;;;-1.02;76.15
8334;BME280;4204;43.004;23.052;2024-03-22T04:44:31;93989.53;;;-1.10;76.78
8334;BME280;4204;43.004;23.052;2024-03-22T04:46:57;94002.06;;;-1.08;77.39
8334;BME280;4204;43.004;23.052;2024-03-22T04:49:22;94003.28;;;-1.03;77.18
8334;BME280;4204;43.004;23.052;2024-03-22T04:51:48;93991.53;;;-1.13;78.57
8334;BME280;4204;43.004;23.052;2024-03-22T04:54:13;93995.38;;;-1.19;78.13
8334;BME280;4204;43.004;23.052;2024-03-22T04:56:39;93996.88;;;-1.07;77.14
8334;BME280;4204;43.004;23.052;2024-03-22T04:59:05;93987.94;;;-1.11;77.98
8334;BME280;4204;43.004;23.052;2024-03-22T05:01:30;93995.31;;;-0.98;77.72
8334;BME280;4204;43.004;23.052;2024-03-22T05:03:56;94006.06;;;-1.06;78.04
8334;BME280;4204;43.004;23.052;2024-03-22T05:06:21;94011.00;;;-1.04;78.65
8334;BME280;4204;43.004;23.052;2024-03-22T05:08:46;94000.50;;;-1.00;78.67
8334;BME280;4204;43.004;23.052;2024-03-22T05:11:12;93996.38;;;-1.01;79.50
8334;BME280;4204;43.004;23.052;2024-03-22T05:13:37;94000.50;;;-0.90;79.42
8334;BME280;4204;43.004;23.052;2024-03-22T05:16:05;94000.25;;;-0.87;80.33
8334;BME280;4204;43.004;23.052;2024-03-22T05:18:31;94012.78;;;-0.76;79.30
8334;BME280;4204;43.004;23.052;2024-03-22T05:20:56;94005.59;;;-0.80;81.37
8334;BME280;4204;43.004;23.052;2024-03-22T05:23:21;94013.06;;;-0.79;81.89
8334;BME280;4204;43.004;23.052;2024-03-22T05:25:47;94023.50;;;-0.72;81.94
8334;BME280;4204;43.004;23.052;2024-03-22T05:28:12;94015.19;;;-0.84;81.92
8334;BME280;4204;43.004;23.052;2024-03-22T05:30:38;94010.84;;;-0.62;80.92
8334;BME280;4204;43.004;23.052;2024-03-22T05:33:03;94019.50;;;-0.55;81.78
8334;BME280;4204;43.004;23.052;2024-03-22T05:35:29;94023.00;;;-0.47;81.39
8334;BME280;4204;43.004;23.052;2024-03-22T05:37:54;94017.41;;;-0.31;80.82
8334;BME280;4204;43.004;23.052;2024-03-22T05:40:19;94028.47;;;-0.13;80.55
8334;BME280;4204;43.004;23.052;2024-03-22T05:42:45;94012.31;;;-0.02;81.15
8334;BME280;4204;43.004;23.052;2024-03-22T05:45:10;94019.16;;;0.07;80.65
8334;BME280;4204;43.004;23.052;2024-03-22T05:47:36;94019.81;;;0.09;81.15
8334;BME280;4204;43.004;23.052;2024-03-22T05:50:02;94023.66;;;0.13;81.80
8334;BME280;4204;43.004;23.052;2024-03-22T05:52:28;94023.00;;;0.21;81.02
8334;BME280;4204;43.004;23.052;2024-03-22T05:54:54;94017.22;;;0.38;80.42
8334;BME280;4204;43.004;23.052;2024-03-22T05:57:20;94025.88;;;0.45;79.95
8334;BME280;4204;43.004;23.052;2024-03-22T05:59:45;94017.31;;;0.56;79.39
8334;BME280;4204;43.004;23.052;2024-03-22T06:02:11;94021.78;;;0.72;79.23
8334;BME280;4204;43.004;23.052;2024-03-22T06:04:36;94033.91;;;0.87;79.24
8334;BME280;4204;43.004;23.052;2024-03-22T06:07:02;94029.47;;;0.99;78.98
8334;BME280;4204;43.004;23.052;2024-03-22T06:09:29;94036.75;;;1.12;80.44
8334;BME280;4204;43.004;23.052;2024-03-22T06:12:21;94036.00;;;1.29;79.26
8334;BME280;4204;43.004;23.052;2024-03-22T06:14:47;94027.53;;;1.38;79.10
8334;BME280;4204;43.004;23.052;2024-03-22T06:17:13;94031.19;;;1.53;80.46
8334;BME280;4204;43.004;23.052;2024-03-22T06:19:39;94029.19;;;1.75;80.35
8334;BME280;4204;43.004;23.052;2024-03-22T06:22:05;94021.84;;;1.89;79.04
8334;BME280;4204;43.004;23.052;2024-03-22T06:24:30;94033.31;;;2.11;77.68
8334;BME280;4204;43.004;23.052;2024-03-22T06:26:56;94035.19;;;2.27;74.21
8334;BME280;4204;43.004;23.052;2024-03-22T06:29:21;94027.69;;;2.43;73.90
8334;BME280;4204;43.004;23.052;2024-03-22T06:31:47;94036.41;;;2.67;72.08
8334;BME280;4204;43.004;23.052;2024-03-22T06:34:13;94027.28;;;2.82;71.20
8334;BME280;4204;43.004;23.052;2024-03-22T06:36:38;94034.56;;;3.03;71.03
8334;BME280;4204;43.004;23.052;2024-03-22T06:39:04;94014.53;;;3.08;69.33
8334;BME280;4204;43.004;23.052;2024-03-22T06:41:32;94042.19;;;3.37;68.16
8334;BME280;4204;43.004;23.052;2024-03-22T06:43:58;94028.19;;;3.49;68.07
8334;BME280;4204;43.004;23.052;2024-03-22T06:46:23;94033.03;;;3.68;67.47
8334;BME280;4204;43.004;23.052;2024-03-22T06:48:52;94037.06;;;3.79;68.02
8334;BME280;4204;43.004;23.052;2024-03-22T06:51:17;94044.25;;;3.92;68.59
8334;BME280;4204;43.004;23.052;2024-03-22T06:53:43;94041.88;;;4.06;68.36
8334;BME280;4204;43.004;23.052;2024-03-22T06:56:08;94037.09;;;4.20;67.99
8334;BME280;4204;43.004;23.052;2024-03-22T06:58:35;94037.09;;;4.44;65.12
8334;BME280;4204;43.004;23.052;2024-03-22T07:01:01;94043.31;;;4.58;64.47
8334;BME280;4204;43.004;23.052;2024-03-22T07:03:27;94040.44;;;4.69;63.87
8334;BME280;4204;43.004;23.052;2024-03-22T07:05:52;94048.53;;;4.89;64.21
8334;BME280;4204;43.004;23.052;2024-03-22T07:08:18;94038.59;;;5.02;62.57
8334;BME280;4204;43.004;23.052;2024-03-22T07:10:43;94044.16;;;5.22;63.58
8334;BME280;4204;43.004;23.052;2024-03-22T07:13:10;94043.47;;;5.36;60.91
8334;BME280;4204;43.004;23.052;2024-03-22T07:15:36;94060.34;;;5.53;60.53
8334;BME280;4204;43.004;23.052;2024-03-22T07:18:01;94046.22;;;5.65;59.70
8334;BME280;4204;43.004;23.052;2024-03-22T07:20:28;94036.50;;;5.84;58.64
8334;BME280;4204;43.004;23.052;2024-03-22T07:22:53;94038.84;;;6.01;59.44
8334;BME280;4204;43.004;23.052;2024-03-22T07:25:18;94051.84;;;6.23;58.64
8334;BME280;4204;43.004;23.052;2024-03-22T07:27:44;94046.31;;;6.34;59.51
8334;BME280;4204;43.004;23.052;2024-03-22T07:30:11;94045.09;;;6.45;58.22
8334;BME280;4204;43.004;23.052;2024-03-22T07:32:37;94041.31;;;6.55;57.92
8334;BME280;4204;43.004;23.052;2024-03-22T07:35:03;94046.81;;;6.67;55.97
8334;BME280;4204;43.004;23.052;2024-03-22T07:37:28;94031.47;;;6.67;56.87
8334;BME280;4204;43.004;23.052;2024-03-22T07:39:54;94042.81;;;6.87;54.69
8334;BME280;4204;43.004;23.052;2024-03-22T07:42:19;94040.88;;;6.89;55.12
8334;BME280;4204;43.004;23.052;2024-03-22T07:44:46;94051.75;;;7.06;54.07
8334;BME280;4204;43.004;23.052;2024-03-22T07:47:11;94049.38;;;7.19;53.13
8334;BME280;4204;43.004;23.052;2024-03-22T07:49:37;94046.00;;;7.33;53.17
8334;BME280;4204;43.004;23.052;2024-03-22T07:52:02;94045.69;;;7.51;53.85
8334;BME280;4204;43.004;23.052;2024-03-22T07:54:29;94043.19;;;7.58;52.91
8334;BME280;4204;43.004;23.052;2024-03-22T07:56:54;94042.09;;;7.67;52.46
8334;BME280;4204;43.004;23.052;2024-03-22T07:59:19;94031.13;;;7.73;52.64
8334;BME280;4204;43.004;23.052;2024-03-22T08:01:45;94047.03;;;7.83;51.44
8334;BME280;4204;43.004;23.052;2024-03-22T08:04:12;94045.94;;;7.92;51.48
8334;BME280;4204;43.004;23.052;2024-03-22T08:06:37;94041.13;;;8.04;51.54
8334;BME280;4204;43.004;23.052;2024-03-22T08:09:03;94042.09;;;8.03;49.49
8334;BME280;4204;43.004;23.052;2024-03-22T08:11:28;94036.59;;;8.06;50.36
8334;BME280;4204;43.004;23.052;2024-03-22T08:13:54;94050.47;;;8.26;49.75
8334;BME280;4204;43.004;23.052;2024-03-22T08:16:27;94040.88;;;8.35;50.37
8334;BME280;4204;43.004;23.052;2024-03-22T08:18:52;94047.25;;;8.39;51.55
8334;BME280;4204;43.004;23.052;2024-03-22T08:21:18;94038.44;;;8.48;48.48
8334;BME280;4204;43.004;23.052;2024-03-22T08:23:43;94045.59;;;8.53;48.73
8334;BME280;4204;43.004;23.052;2024-03-22T08:26:08;94040.25;;;8.54;47.51
8334;BME280;4204;43.004;23.052;2024-03-22T08:28:34;94043.13;;;8.66;48.97
8334;BME280;4204;43.004;23.052;2024-03-22T08:31:03;94040.41;;;8.74;49.73
8334;BME280;4204;43.004;23.052;2024-03-22T08:33:29;94039.28;;;8.83;46.51
8334;BME280;4204;43.004;23.052;2024-03-22T08:35:54;94033.41;;;8.89;46.68
8334;BME280;4204;43.004;23.052;2024-03-22T08:38:20;94044.19;;;9.00;46.60
8334;BME280;4204;43.004;23.052;2024-03-22T08:40:45;94026.94;;;8.94;46.02
8334;BME280;4204;43.004;23.052;2024-03-22T08:43:11;94023.66;;;9.06;45.93
8334;BME280;4204;43.004;23.052;2024-03-22T08:45:36;94035.56;;;9.14;46.53
8334;BME280;4204;43.004;23.052;2024-03-22T08:48:02;94040.94;;;9.19;46.04
8334;BME280;4204;43.004;23.052;2024-03-22T08:50:27;94048.66;;;9.19;45.28
8334;BME280;4204;43.004;23.052;2024-03-22T08:52:53;94038.16;;;9.20;46.93
8334;BME280;4204;43.004;23.052;2024-03-22T08:55:18;94023.69;;;9.13;46.98
8334;BME280;4204;43.004;23.052;2024-03-22T08:57:44;94018.75;;;9.18;46.03
8334;BME280;4204;43.004;23.052;2024-03-22T09:00:10;94030.50;;;9.27;44.89
8334;BME280;4204;43.004;23.052;2024-03-22T09:02:36;94029.31;;;9.30;46.00
8334;BME280;4204;43.004;23.052;2024-03-22T09:05:03;94030.38;;;9.42;44.67
8334;BME280;4204;43.004;23.052;2024-03-22T09:07:29;94033.34;;;9.45;44.78
8334;BME280;4204;43.004;23.052;2024-03-22T09:09:54;94031.16;;;9.42;45.39
8334;BME280;4204;43.004;23.052;2024-03-22T09:12:20;94026.19;;;9.41;44.67
8334;BME280;4204;43.004;23.052;2024-03-22T09:14:45;94015.13;;;9.40;44.64
8334;BME280;4204;43.004;23.052;2024-03-22T09:17:11;94015.13;;;9.40;44.12
8334;BME280;4204;43.004;23.052;2024-03-22T09:19:36;94028.41;;;9.44;45.68
8334;BME280;4204;43.004;23.052;2024-03-22T09:22:02;94013.75;;;9.44;43.98
8334;BME280;4204;43.004;23.052;2024-03-22T09:24:28;94011.94;;;9.38;44.55
8334;BME280;4204;43.004;23.052;2024-03-22T09:26:53;94026.44;;;9.52;45.03
8334;BME280;4204;43.004;23.052;2024-03-22T09:29:19;94018.94;;;9.57;44.79
8334;BME280;4204;43.004;23.052;2024-03-22T09:31:44;94010.84;;;9.61;43.93
8334;BME280;4204;43.004;23.052;2024-03-22T09:34:12;94023.13;;;9.65;43.22
8334;BME280;4204;43.004;23.052;2024-03-22T09:36:38;94005.13;;;9.65;44.40
8334;BME280;4204;43.004;23.052;2024-03-22T09:39:04;94010.75;;;9.82;44.87
8334;BME280;4204;43.004;23.052;2024-03-22T09:41:31;94005.63;;;9.95;42.05
8334;BME280;4204;43.004;23.052;2024-03-22T09:43:58;93999.13;;;10.06;44.74
8334;BME280;4204;43.004;23.052;2024-03-22T09:46:46;93992.19;;;10.19;44.55
8334;BME280;4204;43.004;23.052;2024-03-22T09:49:11;93994.41;;;10.36;43.01
8334;BME280;4204;43.004;23.052;2024-03-22T09:51:37;93991.25;;;10.34;41.46
8334;BME280;4204;43.004;23.052;2024-03-22T09:54:04;93989.66;;;10.39;42.39
8334;BME280;4204;43.004;23.052;2024-03-22T09:56:30;93986.09;;;10.34;42.02
8334;BME280;4204;43.004;23.052;2024-03-22T09:58:57;93997.03;;;10.49;41.13
8334;BME280;4204;43.004;23.052;2024-03-22T10:01:24;93990.50;;;10.46;42.85
8334;BME280;4204;43.004;23.052;2024-03-22T10:03:51;93987.31;;;10.51;41.31
8334;BME280;4204;43.004;23.052;2024-03-22T10:06:17;93992.06;;;10.61;41.86
8334;BME280;4204;43.004;23.052;2024-03-22T10:08:44;93979.56;;;10.71;43.46
8334;BME280;4204;43.004;23.052;2024-03-22T10:11:10;93987.50;;;10.76;40.09
8334;BME280;4204;43.004;23.052;2024-03-22T10:13:35;93989.88;;;10.77;38.33
8334;BME280;4204;43.004;23.052;2024-03-22T10:16:01;93992.84;;;10.74;39.59
8334;BME280;4204;43.004;23.052;2024-03-22T10:18:27;93985.50;;;10.78;39.64
8334;BME280;4204;43.004;23.052;2024-03-22T10:21:03;93985.31;;;10.79;37.86
8334;BME280;4204;43.004;23.052;2024-03-22T10:23:29;93973.00;;;10.81;39.51
8334;BME280;4204;43.004;23.052;2024-03-22T10:25:58;93975.19;;;10.91;39.38
8334;BME280;4204;43.004;23.052;2024-03-22T10:28:25;93965.25;;;10.95;39.89
8334;BME280;4204;43.004;23.052;2024-03-22T10:30:51;93980.31;;;11.04;38.52
8334;BME280;4204;43.004;23.052;2024-03-22T10:33:21;93958.88;;;11.04;37.67
8334;BME280;4204;43.004;23.052;2024-03-22T10:35:52;93968.00;;;11.20;38.33
8334;BME280;4204;43.004;23.052;2024-03-22T10:38:19;93967.19;;;11.26;39.23
8334;BME280;4204;43.004;23.052;2024-03-22T10:40:45;93959.47;;;11.19;37.86
8334;BME280;4204;43.004;23.052;2024-03-22T10:43:13;93960.47;;;11.18;37.22
8334;BME280;4204;43.004;23.052;2024-03-22T10:45:40;93958.47;;;11.20;38.26
8334;BME280;4204;43.004;23.052;2024-03-22T10:48:09;93958.44;;;11.27;38.14
8334;BME280;4204;43.004;23.052;2024-03-22T10:50:40;93951.91;;;11.24;37.82
8334;BME280;4204;43.004;23.052;2024-03-22T10:53:11;93953.06;;;11.28;38.79
8334;BME280;4204;43.004;23.052;2024-03-22T10:55:42;93952.63;;;11.38;39.62
8334;BME280;4204;43.004;23.052;2024-03-22T10:58:18;93946.63;;;11.51;38.97
8334;BME280;4204;43.004;23.052;2024-03-22T11:00:46;93941.00;;;11.67;37.46
8334;BME280;4204;43.004;23.052;2024-03-22T11:03:12;93945.69;;;11.83;37.01
8334;BME280;4204;43.004;23.052;2024-03-22T11:05:48;93934.94;;;11.86;34.26
8334;BME280;4204;43.004;23.052;2024-03-22T11:08:23;93937.72;;;11.91;36.93
8334;BME280;4204;43.004;23.052;2024-03-22T11:10:49;93931.72;;;11.97;35.13
8334;BME280;4204;43.004;23.052;2024-03-22T11:13:16;93924.78;;;11.98;39.68
8334;BME280;4204;43.004;23.052;2024-03-22T11:15:42;93922.47;;;12.15;36.06
8334;BME280;4204;43.004;23.052;2024-03-22T11:18:09;93922.03;;;12.18;36.63
8334;BME280;4204;43.004;23.052;2024-03-22T11:20:38;93918.88;;;12.16;34.90
8334;BME280;4204;43.004;23.052;2024-03-22T11:23:04;93915.38;;;12.03;32.80
8334;BME280;4204;43.004;23.052;2024-03-22T11:25:31;93918.66;;;11.86;33.00
8334;BME280;4204;43.004;23.052;2024-03-22T11:27:57;93936.00;;;11.78;32.23
8334;BME280;4204;43.004;23.052;2024-03-22T11:30:29;93928.28;;;11.65;33.25
8334;BME280;4204;43.004;23.052;2024-03-22T11:32:55;93920.34;;;11.67;34.61
8334;BME280;4204;43.004;23.052;2024-03-22T11:35:21;93915.16;;;11.67;34.40
8334;BME280;4204;43.004;23.052;2024-03-22T11:37:47;93915.97;;;11.67;33.51
8334;BME280;4204;43.004;23.052;2024-03-22T11:40:14;93910.63;;;11.62;35.76
8334;BME280;4204;43.004;23.052;2024-03-22T11:42:41;93907.00;;;11.70;33.40
8334;BME280;4204;43.004;23.052;2024-03-22T11:45:11;93911.16;;;11.77;34.54
8334;BME280;4204;43.004;23.052;2024-03-22T11:47:37;93899.22;;;11.83;33.84
8334;BME280;4204;43.004;23.052;2024-03-22T11:50:03;93895.41;;;11.92;36.69
8334;BME280;4204;43.004;23.052;2024-03-22T11:52:29;93901.22;;;12.13;33.09
8334;BME280;4204;43.004;23.052;2024-03-22T11:54:55;93905.28;;;12.27;33.30
8334;BME280;4204;43.004;23.052;2024-03-22T11:57:21;93903.16;;;12.17;32.56
8334;BME280;4204;43.004;23.052;2024-03-22T11:59:47;93890.34;;;12.04;31.59
8334;BME280;4204;43.004;23.052;2024-03-22T12:02:13;93893.97;;;11.96;33.51
8334;BME280;4204;43.004;23.052;2024-03-22T12:04:46;93887.66;;;11.92;32.42
8334;BME280;4204;43.004;23.052;2024-03-22T12:07:17;93884.44;;;11.97;32.51
8334;BME280;4204;43.004;23.052;2024-03-22T12:09:43;93875.34;;;11.88;30.09
8334;BME280;4204;43.004;23.052;2024-03-22T12:12:29;93877.72;;;11.89;29.79
8334;BME280;4204;43.004;23.052;2024-03-22T12:14:55;93866.19;;;11.92;30.98
8334;BME280;4204;43.004;23.052;2024-03-22T12:17:20;93878.69;;;11.95;30.36
8334;BME280;4204;43.004;23.052;2024-03-22T12:19:46;93874.63;;;12.05;31.48
8334;BME280;4204;43.004;23.052;2024-03-22T12:22:12;93863.81;;;12.15;31.52
8334;BME280;4204;43.004;23.052;2024-03-22T12:24:38;93865.97;;;12.18;33.08
8334;BME280;4204;43.004;23.052;2024-03-22T12:27:03;93865.06;;;12.31;31.08
8334;BME280;4204;43.004;23.052;2024-03-22T12:29:29;93854.63;;;12.19;30.61
8334;BME280;4204;43.004;23.052;2024-03-22T12:31:57;93845.09;;;12.20;31.41
8334;BME280;4204;43.004;23.052;2024-03-22T12:34:22;93861.84;;;12.35;29.75
8334;BME280;4204;43.004;23.052;2024-03-22T12:36:47;93850.94;;;12.33;29.60
8334;BME280;4204;43.004;23.052;2024-03-22T12:39:14;93849.72;;;12.36;31.77
8334;BME280;4204;43.004;23.052;2024-03-22T12:41:40;93850.44;;;12.43;32.79
8334;BME280;4204;43.004;23.052;2024-03-22T12:44:05;93845.78;;;12.52;34.51
8334;BME280;4204;43.004;23.052;2024-03-22T12:46:30;93835.56;;;12.63;33.18
8334;BME280;4204;43.004;23.052;2024-03-22T12:48:56;93840.88;;;12.68;33.94
8334;BME280;4204;43.004;23.052;2024-03-22T12:51:21;93837.00;;;12.78;34.46
8334;BME280;4204;43.004;23.052;2024-03-22T12:53:47;93835.53;;;12.82;31.69
8334;BME280;4204;43.004;23.052;2024-03-22T12:56:12;93837.13;;;12.83;31.13
8334;BME280;4204;43.004;23.052;2024-03-22T12:58:38;93848.63;;;12.87;33.31
8334;BME280;4204;43.004;23.052;2024-03-22T13:01:04;93840.78;;;12.75;32.23
8334;BME280;4204;43.004;23.052;2024-03-22T13:03:32;93852.44;;;12.66;33.16
8334;BME280;4204;43.004;23.052;2024-03-22T13:05:57;93828.38;;;12.65;33.79
8334;BME280;4204;43.004;23.052;2024-03-22T13:08:23;93842.59;;;12.75;32.47
8334;BME280;4204;43.004;23.052;2024-03-22T13:10:48;93826.56;;;12.66;34.92